YQX weather

Gander International Airport
Gander, Newfoundland and Labrador, Canada

Public forecast

Using degrees Celsius for public forecast. Weather courtesy of forecast.io.

Current aviation weather report (METAR) for Gander International Airport

Retrieved 2020/01/29 10:00 UTC (49 minutes ago):

CYQX 291000Z 33006KT 10SM FEW006 SCT020 BKN032 BKN042 M06/M06 A2952 RMK SF1SC2SC2SC2 SLP007

Aviation forecast (TAF) for Gander International Airport

Retrieved 2020/01/29 06:40 UTC (4 hours ago):

TAF CYQX 290538Z 2906/3006 34005KT 4SM -SN BR BKN002 OVC020 TEMPO 2906/2908 P6SM -SN SCT002 OVC020 PROB30 2906/2908 3/4SM -FZDZ BR FM290800 36010KT 2SM -SN BR BKN002 OVC007 TEMPO 2908/2915 6SM BR SCT002 OVC007 PROB30 2908/2915 3/4SM -FZDZ BR FM291500 36012KT P6SM BKN015 OVC040 BECMG 2922/2924 31010KT FM300400 30010KT 6SM -SHSN BKN008 OVC015 PROB30 3004/3006 3/4SM -SHSN RMK NXT FCST BY 291200Z